Time;durP1;ratioP1;P1;durP2;ratioP2;P2;SDS_P1;SDS_P2;PMS_P1;PMS_P2;Temp;Humidity;BMP_temperature;BMP_pressure;BME280_temperature;BME280_humidity;BME280_pressure;Samples;Min_cycle;Max_cycle;Signal;HPM_P1;HPM_P2
2022/01/29 00:00:26;;;;;;;;;;;8.00;33.20;;;;;;4994504;28;19910;-67
2022/01/29 00:02:52;;;;;;;;;;;8.00;33.00;;;;;;4994792;28;19956;-65
2022/01/29 00:05:17;;;;;;;;;;;8.10;33.00;;;;;;4994857;28;19909;-66
2022/01/29 00:07:43;;;;;;;;;;;8.00;33.70;;;;;;4994465;28;20004;-67
2022/01/29 00:10:09;;;;;;;;;;;8.00;33.70;;;;;;4994648;28;20354;-68
2022/01/29 00:12:35;;;;;;;;;;;8.00;33.50;;;;;;4994773;28;19910;-67
2022/01/29 00:15:01;;;;;;;;;;;7.90;33.80;;;;;;4994466;28;19910;-67
2022/01/29 00:17:26;;;;;;;;;;;8.00;33.60;;;;;;4994550;28;19967;-67
2022/01/29 00:19:52;;;;;;;;;;;8.10;33.70;;;;;;4994488;28;19914;-67
2022/01/29 00:22:18;;;;;;;;;;;8.00;33.50;;;;;;4994557;28;19910;-65
2022/01/29 00:24:43;;;;;;;;;;;8.00;34.00;;;;;;4994294;28;19917;-71
2022/01/29 00:27:10;;;;;;;;;;;7.90;33.90;;;;;;4994118;28;20450;-70
2022/01/29 00:29:41;;;;;;;;;;;7.90;33.60;;;;;;4994362;28;20361;-68
2022/01/29 00:32:08;;;;;;;;;;;7.90;33.80;;;;;;4994243;28;19938;-68
2022/01/29 00:34:33;;;;;;;;;;;8.00;33.70;;;;;;4992801;28;20333;-68
2022/01/29 00:36:59;;;;;;;;;;;8.00;33.40;;;;;;4994252;28;19913;-69
2022/01/29 00:39:24;;;;;;;;;;;7.90;33.80;;;;;;4994132;28;19968;-70
2022/01/29 00:41:50;;;;;;;;;;;7.90;33.90;;;;;;4994175;28;20349;-70
2022/01/29 00:44:15;;;;;;;;;;;7.90;33.80;;;;;;4993762;28;19976;-69
2022/01/29 00:46:41;;;;;;;;;;;7.80;33.90;;;;;;4994229;28;20016;-70
2022/01/29 00:49:07;;;;;;;;;;;7.90;33.90;;;;;;4993942;28;19909;-69
2022/01/29 00:51:33;;;;;;;;;;;7.90;33.50;;;;;;4993230;28;20584;-68
2022/01/29 00:53:59;;;;;;;;;;;8.00;33.40;;;;;;4994014;28;20029;-69
2022/01/29 00:56:24;;;;;;;;;;;8.00;33.30;;;;;;4993872;28;20358;-69
2022/01/29 00:58:50;;;;;;;;;;;8.00;33.60;;;;;;4993898;28;19910;-69
2022/01/29 01:01:15;;;;;;;;;;;8.00;33.60;;;;;;4993820;28;20318;-71
2022/01/29 01:03:41;;;;;;;;;;;8.00;33.70;;;;;;4993632;28;20314;-71
2022/01/29 01:06:06;;;;;;;;;;;8.00;34.10;;;;;;4993814;28;19910;-69
2022/01/29 01:08:32;;;;;;;;;;;8.00;33.80;;;;;;4993581;28;20854;-68
2022/01/29 01:10:57;;;;;;;;;;;8.00;34.00;;;;;;4993590;28;19956;-69
2022/01/29 01:13:23;;;;;;;;;;;8.00;33.60;;;;;;4993822;28;19910;-70
2022/01/29 01:15:49;;;;;;;;;;;8.00;33.50;;;;;;4993755;28;19910;-69
2022/01/29 01:18:14;;;;;;;;;;;8.10;33.60;;;;;;4993823;28;20004;-67
2022/01/29 01:20:40;;;;;;;;;;;8.10;34.00;;;;;;4993611;28;19910;-68
2022/01/29 01:23:05;;;;;;;;;;;8.10;33.40;;;;;;4993613;28;19943;-69
2022/01/29 01:25:31;;;;;;;;;;;8.10;33.20;;;;;;4993687;28;19910;-69
2022/01/29 01:27:56;;;;;;;;;;;8.10;33.30;;;;;;4993320;28;20319;-68
2022/01/29 01:30:22;;;;;;;;;;;8.10;33.20;;;;;;4993334;28;19964;-68
2022/01/29 01:32:48;;;;;;;;;;;8.10;33.40;;;;;;4993596;28;19953;-69
2022/01/29 01:35:28;;;;;;;;;;;8.00;33.60;;;;;;4992133;28;19909;-69
2022/01/29 01:38:06;;;;;;;;;;;8.00;33.80;;;;;;4993454;28;19917;-66
2022/01/29 01:40:32;;;;;;;;;;;7.90;33.50;;;;;;4992007;28;19914;-69
2022/01/29 01:43:00;;;;;;;;;;;7.90;33.60;;;;;;4993374;28;19945;-70
2022/01/29 01:45:29;;;;;;;;;;;7.80;33.80;;;;;;4993286;28;19910;-70
2022/01/29 01:47:56;;;;;;;;;;;7.80;33.80;;;;;;4993052;28;19940;-70
2022/01/29 01:50:21;;;;;;;;;;;7.90;33.30;;;;;;4993319;28;20255;-71
2022/01/29 01:52:47;;;;;;;;;;;8.00;33.20;;;;;;4993338;28;19917;-69
2022/01/29 01:55:13;;;;;;;;;;;8.00;33.30;;;;;;4992046;28;19917;-69
2022/01/29 01:57:39;;;;;;;;;;;8.10;32.80;;;;;;4993164;28;19910;-69
2022/01/29 02:00:05;;;;;;;;;;;8.10;32.70;;;;;;4993315;28;19961;-69
2022/01/29 02:02:30;;;;;;;;;;;8.20;32.60;;;;;;4994668;28;19910;-68
2022/01/29 02:04:56;;;;;;;;;;;8.20;32.50;;;;;;4997095;28;20017;-70
2022/01/29 02:07:21;;;;;;;;;;;8.20;32.30;;;;;;4997371;28;19956;-68
2022/01/29 02:09:47;;;;;;;;;;;8.30;32.20;;;;;;4997047;28;19910;-68
2022/01/29 02:12:13;;;;;;;;;;;8.30;31.90;;;;;;4997218;28;19909;-69
2022/01/29 02:14:41;;;;;;;;;;;8.30;31.80;;;;;;4996070;28;20453;-68
2022/01/29 02:17:07;;;;;;;;;;;8.30;32.10;;;;;;4996868;28;19917;-69
2022/01/29 02:19:33;;;;;;;;;;;8.20;32.10;;;;;;4996935;28;20277;-70
2022/01/29 02:21:59;;;;;;;;;;;8.30;32.00;;;;;;4996668;28;19910;-68
2022/01/29 02:24:25;;;;;;;;;;;8.30;32.10;;;;;;4996660;28;19909;-69
2022/01/29 02:26:50;;;;;;;;;;;8.20;31.90;;;;;;4996653;28;20270;-68
2022/01/29 02:29:16;;;;;;;;;;;8.30;31.60;;;;;;4996471;28;20012;-69
2022/01/29 02:32:08;;;;;;;;;;;8.30;31.70;;;;;;4996629;28;19910;-69
2022/01/29 02:34:34;;;;;;;;;;;8.30;32.00;;;;;;4995038;28;19966;-71
2022/01/29 02:37:00;;;;;;;;;;;8.30;31.90;;;;;;4997097;28;19914;-69
2022/01/29 02:39:26;;;;;;;;;;;8.30;32.00;;;;;;4996930;28;19910;-68
2022/01/29 02:41:51;;;;;;;;;;;8.30;32.20;;;;;;4997021;28;19969;-69
2022/01/29 02:44:20;;;;;;;;;;;8.30;32.10;;;;;;4996777;28;19933;-68
2022/01/29 02:46:52;;;;;;;;;;;8.20;32.20;;;;;;4997343;28;19966;-70
2022/01/29 02:49:25;;;;;;;;;;;8.20;32.30;;;;;;5007987;28;20319;-69
2022/01/29 02:51:52;;;;;;;;;;;8.20;32.10;;;;;;5016555;28;19910;-71
2022/01/29 02:54:17;;;;;;;;;;;8.20;32.10;;;;;;5010736;28;19914;-69
2022/01/29 02:56:43;;;;;;;;;;;8.20;32.30;;;;;;4996742;28;19921;-69
2022/01/29 02:59:08;;;;;;;;;;;8.20;32.60;;;;;;4996837;28;19910;-69
2022/01/29 03:01:34;;;;;;;;;;;8.10;32.60;;;;;;4996303;28;19910;-69
2022/01/29 03:04:00;;;;;;;;;;;8.10;33.00;;;;;;4996407;28;20373;-69
2022/01/29 03:06:26;;;;;;;;;;;8.00;34.80;;;;;;4996246;28;19914;-69
2022/01/29 03:08:52;;;;;;;;;;;7.90;37.30;;;;;;4996113;28;19925;-70
2022/01/29 03:11:19;;;;;;;;;;;8.00;38.70;;;;;;4994934;28;19917;-70
2022/01/29 03:13:48;;;;;;;;;;;7.70;40.60;;;;;;4995617;28;20060;-69
2022/01/29 03:16:14;;;;;;;;;;;7.60;42.10;;;;;;4996458;28;19914;-68
2022/01/29 03:18:40;;;;;;;;;;;7.60;42.30;;;;;;4996088;28;19918;-70
2022/01/29 03:21:05;;;;;;;;;;;7.50;41.70;;;;;;4996115;28;19926;-68
2022/01/29 03:23:31;;;;;;;;;;;7.30;41.40;;;;;;4996220;28;19936;-69
2022/01/29 03:25:56;;;;;;;;;;;7.20;42.20;;;;;;4994414;28;19996;-68
2022/01/29 03:28:22;;;;;;;;;;;7.40;38.70;;;;;;4995818;28;19965;-70
2022/01/29 03:30:47;;;;;;;;;;;7.40;38.00;;;;;;4995844;28;19917;-69
2022/01/29 03:33:13;;;;;;;;;;;7.50;39.80;;;;;;4994075;28;19933;-68
2022/01/29 03:35:39;;;;;;;;;;;7.50;42.30;;;;;;4995773;28;19909;-70
2022/01/29 03:38:04;;;;;;;;;;;7.20;40.80;;;;;;4995460;28;19910;-68
2022/01/29 03:40:31;;;;;;;;;;;7.00;40.80;;;;;;4993875;28;19996;-69
2022/01/29 03:43:04;;;;;;;;;;;6.80;42.00;;;;;;4995157;28;19913;-68
2022/01/29 03:45:30;;;;;;;;;;;6.70;43.30;;;;;;4995185;28;19918;-69
2022/01/29 03:47:55;;;;;;;;;;;6.60;42.50;;;;;;4995203;28;19940;-69
2022/01/29 03:50:21;;;;;;;;;;;6.60;42.50;;;;;;4994873;28;20340;-70
2022/01/29 03:52:46;;;;;;;;;;;6.40;43.20;;;;;;4995191;28;19910;-70
2022/01/29 03:55:12;;;;;;;;;;;6.40;43.00;;;;;;4994752;28;19925;-69
2022/01/29 03:57:37;;;;;;;;;;;6.60;42.10;;;;;;4995030;28;19909;-68
2022/01/29 04:00:04;;;;;;;;;;;6.50;42.90;;;;;;4995020;28;19909;-69
2022/01/29 04:02:29;;;;;;;;;;;6.30;43.70;;;;;;4994748;28;19913;-69
2022/01/29 04:04:55;;;;;;;;;;;6.20;44.80;;;;;;4994980;28;19965;-67
2022/01/29 04:07:20;;;;;;;;;;;6.20;43.60;;;;;;4994813;28;19918;-68
2022/01/29 04:09:51;;;;;;;;;;;6.40;43.20;;;;;;4994544;28;19910;-69
2022/01/29 04:12:17;;;;;;;;;;;6.50;43.00;;;;;;4994792;28;19972;-68
2022/01/29 04:14:42;;;;;;;;;;;6.40;44.10;;;;;;4994808;28;20365;-68
2022/01/29 04:17:08;;;;;;;;;;;6.30;45.10;;;;;;4994714;28;19910;-68
2022/01/29 04:19:34;;;;;;;;;;;6.20;45.90;;;;;;4994632;28;20248;-68
2022/01/29 04:22:00;;;;;;;;;;;6.00;46.40;;;;;;4994328;28;20014;-68
2022/01/29 04:24:26;;;;;;;;;;;6.00;47.00;;;;;;4994508;28;20000;-67
2022/01/29 04:26:51;;;;;;;;;;;6.20;46.80;;;;;;4993631;28;19918;-67
2022/01/29 04:29:17;;;;;;;;;;;6.40;46.70;;;;;;4994136;28;19960;-68
2022/01/29 04:32:44;;;;;;;;;;;6.40;46.00;;;;;;4994350;28;20289;-68
2022/01/29 04:34:29;;;;;;;;;;;6.50;46.20;;;;;;4987128;28;19910;-67
2022/01/29 04:36:54;;;;;;;;;;;6.40;46.90;;;;;;4994205;28;20306;-68
2022/01/29 04:39:20;;;;;;;;;;;6.50;46.40;;;;;;4993832;28;20336;-67
2022/01/29 04:41:45;;;;;;;;;;;6.50;46.20;;;;;;4994288;28;19910;-68
2022/01/29 04:44:11;;;;;;;;;;;6.60;46.30;;;;;;4993827;28;19925;-68
2022/01/29 04:46:36;;;;;;;;;;;6.50;45.90;;;;;;4994007;28;20008;-68
2022/01/29 04:49:02;;;;;;;;;;;6.70;45.70;;;;;;4993956;28;19910;-69
2022/01/29 04:51:28;;;;;;;;;;;6.60;46.00;;;;;;4993810;28;19914;-68
2022/01/29 04:53:53;;;;;;;;;;;6.50;45.80;;;;;;4994113;28;19909;-68
2022/01/29 04:56:19;;;;;;;;;;;6.50;46.20;;;;;;4993965;28;20020;-67
2022/01/29 04:58:44;;;;;;;;;;;6.50;47.10;;;;;;4993701;28;19956;-66
2022/01/29 05:01:10;;;;;;;;;;;6.50;46.90;;;;;;4994052;28;20329;-68
2022/01/29 05:03:36;;;;;;;;;;;6.30;46.60;;;;;;4993828;28;19910;-69
2022/01/29 05:06:01;;;;;;;;;;;6.20;46.10;;;;;;4993703;28;20384;-69
2022/01/29 05:08:27;;;;;;;;;;;6.30;45.20;;;;;;4993754;28;19921;-69
2022/01/29 05:10:54;;;;;;;;;;;6.30;44.80;;;;;;4993807;28;19914;-69
2022/01/29 05:13:23;;;;;;;;;;;6.40;44.70;;;;;;4993745;28;20362;-68
2022/01/29 05:29:11;;;;;;;;;;;6.20;44.80;;;;;;4993474;28;20289;-67
2022/01/29 05:31:37;;;;;;;;;;;6.40;43.90;;;;;;4993926;28;19910;-66
2022/01/29 05:34:03;;;;;;;;;;;6.40;43.60;;;;;;4993656;28;19913;-66
2022/01/29 05:36:28;;;;;;;;;;;6.20;44.10;;;;;;4993312;28;19910;-66
2022/01/29 05:38:54;;;;;;;;;;;6.10;44.40;;;;;;4993584;28;20266;-67
2022/01/29 05:41:19;;;;;;;;;;;6.00;44.40;;;;;;4993350;28;20028;-67
2022/01/29 05:43:45;;;;;;;;;;;5.90;45.00;;;;;;4993311;28;19937;-67
2022/01/29 05:46:11;;;;;;;;;;;5.80;45.40;;;;;;4992144;28;19921;-66
2022/01/29 05:48:37;;;;;;;;;;;5.90;45.20;;;;;;4993241;28;19918;-67
2022/01/29 05:51:02;;;;;;;;;;;6.00;45.40;;;;;;4993374;28;19910;-68
2022/01/29 05:53:28;;;;;;;;;;;5.80;46.30;;;;;;4993338;28;20008;-67
2022/01/29 05:55:53;;;;;;;;;;;5.50;47.60;;;;;;4993521;28;19909;-67
2022/01/29 05:58:19;;;;;;;;;;;5.30;48.80;;;;;;4993336;28;19910;-65
2022/01/29 06:00:45;;;;;;;;;;;5.20;49.40;;;;;;4993291;28;19910;-67
2022/01/29 06:03:10;;;;;;;;;;;5.10;49.70;;;;;;4993479;28;19937;-67
2022/01/29 06:05:36;;;;;;;;;;;5.10;49.30;;;;;;4993416;28;19956;-67
2022/01/29 06:08:02;;;;;;;;;;;5.00;49.90;;;;;;4992138;28;19925;-67
2022/01/29 06:10:28;;;;;;;;;;;5.00;50.70;;;;;;4994610;28;19910;-68
2022/01/29 06:12:57;;;;;;;;;;;5.20;49.20;;;;;;5011858;28;19897;-67
2022/01/29 06:15:22;;;;;;;;;;;5.20;48.30;;;;;;4996596;28;20023;-67
2022/01/29 06:17:48;;;;;;;;;;;5.30;48.30;;;;;;4993156;28;19909;-66
2022/01/29 06:20:14;;;;;;;;;;;5.30;48.20;;;;;;4992954;28;19917;-68
2022/01/29 06:22:41;;;;;;;;;;;5.40;48.10;;;;;;4993330;28;19917;-67
2022/01/29 06:25:06;;;;;;;;;;;5.70;46.10;;;;;;4992957;28;19999;-67
2022/01/29 06:27:32;;;;;;;;;;;6.00;44.90;;;;;;4993235;28;19984;-68
2022/01/29 06:29:57;;;;;;;;;;;5.80;45.60;;;;;;4993482;28;19917;-67
2022/01/29 06:32:23;;;;;;;;;;;5.60;47.40;;;;;;4992954;28;20444;-68
2022/01/29 06:34:49;;;;;;;;;;;5.30;48.40;;;;;;4993062;28;20333;-66
2022/01/29 06:37:14;;;;;;;;;;;5.20;49.80;;;;;;4993150;28;20012;-66
2022/01/29 06:39:40;;;;;;;;;;;5.00;50.90;;;;;;4993119;28;20369;-68
2022/01/29 06:42:05;;;;;;;;;;;5.20;49.60;;;;;;4993380;28;20275;-67
2022/01/29 06:44:31;;;;;;;;;;;5.20;50.70;;;;;;4992991;28;19944;-67
2022/01/29 06:46:56;;;;;;;;;;;5.20;49.90;;;;;;4993009;28;20307;-67
2022/01/29 06:49:22;;;;;;;;;;;5.30;49.20;;;;;;4994346;28;19909;-68
2022/01/29 06:51:48;;;;;;;;;;;5.20;49.20;;;;;;4996520;28;19941;-69
2022/01/29 06:54:13;;;;;;;;;;;5.10;49.80;;;;;;4996589;28;19910;-69
2022/01/29 06:56:39;;;;;;;;;;;5.30;48.90;;;;;;4997413;28;19909;-69
2022/01/29 06:59:05;;;;;;;;;;;5.40;48.80;;;;;;4997403;28;19968;-68
2022/01/29 07:01:30;;;;;;;;;;;5.30;49.30;;;;;;4998310;28;19969;-70
2022/01/29 07:03:56;;;;;;;;;;;5.30;49.10;;;;;;4996718;28;19914;-63
2022/01/29 07:06:21;;;;;;;;;;;5.30;49.90;;;;;;4996171;28;20023;-62
2022/01/29 07:08:47;;;;;;;;;;;5.50;51.90;;;;;;4996161;28;19914;-62
2022/01/29 07:11:13;;;;;;;;;;;6.10;57.40;;;;;;4996253;28;20421;-62
2022/01/29 07:13:38;;;;;;;;;;;7.30;62.30;;;;;;4996190;28;20408;-60
2022/01/29 07:16:04;;;;;;;;;;;8.30;57.40;;;;;;4995910;28;19910;-64
2022/01/29 07:18:30;;;;;;;;;;;8.30;46.90;;;;;;4995968;28;19914;-63
2022/01/29 07:20:55;;;;;;;;;;;7.80;44.10;;;;;;4995733;28;20429;-65
2022/01/29 07:23:21;;;;;;;;;;;7.10;45.30;;;;;;4996011;28;20285;-67
2022/01/29 07:25:46;;;;;;;;;;;6.70;46.90;;;;;;4995938;28;19917;-74
2022/01/29 07:28:12;;;;;;;;;;;6.30;48.10;;;;;;4995774;28;20016;-69
2022/01/29 07:30:37;;;;;;;;;;;6.10;49.30;;;;;;4995799;28;20000;-71
2022/01/29 07:33:03;;;;;;;;;;;6.20;48.30;;;;;;4996160;28;19909;-71
2022/01/29 07:35:29;;;;;;;;;;;6.40;47.40;;;;;;4989400;28;19914;-68
2022/01/29 07:37:54;;;;;;;;;;;6.50;48.30;;;;;;4976405;28;20228;-66
2022/01/29 07:40:20;;;;;;;;;;;6.50;48.50;;;;;;4976438;28;19918;-66
2022/01/29 07:42:45;;;;;;;;;;;6.40;49.00;;;;;;4976197;28;19925;-67
2022/01/29 07:45:11;;;;;;;;;;;6.50;49.30;;;;;;4976423;28;19914;-69
2022/01/29 07:47:36;;;;;;;;;;;6.60;48.60;;;;;;4976319;28;19925;-71
2022/01/29 07:50:02;;;;;;;;;;;6.80;46.70;;;;;;4976227;28;19915;-69
2022/01/29 07:52:28;;;;;;;;;;;6.80;47.40;;;;;;4976112;28;19965;-71
2022/01/29 07:54:53;;;;;;;;;;;6.80;48.50;;;;;;4976319;28;19918;-68
2022/01/29 07:57:19;;;;;;;;;;;6.70;49.70;;;;;;4975999;28;19965;-72
2022/01/29 07:59:45;;;;;;;;;;;6.80;48.20;;;;;;4975787;28;20005;-69
2022/01/29 08:02:10;;;;;;;;;;;6.90;47.30;;;;;;4976557;28;19917;-71
2022/01/29 08:04:36;;;;;;;;;;;7.00;46.30;;;;;;4974701;28;19910;-70
2022/01/29 08:07:02;;;;;;;;;;;7.20;45.60;;;;;;4975548;28;19926;-70
2022/01/29 08:09:28;;;;;;;;;;;7.40;44.90;;;;;;4975916;28;19914;-70
2022/01/29 08:11:53;;;;;;;;;;;7.40;45.00;;;;;;4976053;28;20311;-72
2022/01/29 08:14:19;;;;;;;;;;;7.60;45.10;;;;;;4980710;28;19914;-75
2022/01/29 08:16:44;;;;;;;;;;;7.70;45.50;;;;;;4993370;28;20377;-72
2022/01/29 08:19:10;;;;;;;;;;;7.70;47.20;;;;;;4991854;28;20401;-70
2022/01/29 08:21:38;;;;;;;;;;;7.70;48.60;;;;;;4990974;28;19933;-70
2022/01/29 08:24:05;;;;;;;;;;;7.90;48.20;;;;;;4993595;28;20257;-69
2022/01/29 08:26:31;;;;;;;;;;;8.00;47.70;;;;;;4994190;28;19953;-70
2022/01/29 08:28:56;;;;;;;;;;;8.20;47.80;;;;;;4994394;28;20004;-70
2022/01/29 08:31:22;;;;;;;;;;;8.50;47.00;;;;;;4992038;28;19995;-71
2022/01/29 08:33:47;;;;;;;;;;;8.80;48.40;;;;;;4993654;28;20279;-72
2022/01/29 08:36:13;;;;;;;;;;;9.20;49.90;;;;;;4993208;28;19917;-70
2022/01/29 08:38:39;;;;;;;;;;;9.40;47.30;;;;;;4993428;28;20609;-75
2022/01/29 08:41:04;;;;;;;;;;;9.60;46.90;;;;;;4991473;28;20313;-72
2022/01/29 08:43:32;;;;;;;;;;;9.70;44.70;;;;;;4993909;28;19925;-73
2022/01/29 08:45:58;;;;;;;;;;;9.90;45.10;;;;;;4993990;28;20369;-74
2022/01/29 08:48:24;;;;;;;;;;;10.00;44.50;;;;;;4991428;28;19929;-70
2022/01/29 08:50:49;;;;;;;;;;;10.00;42.50;;;;;;4989917;28;19956;-70
2022/01/29 08:53:16;;;;;;;;;;;10.00;40.20;;;;;;4991188;28;19914;-69
2022/01/29 08:55:41;;;;;;;;;;;10.10;41.10;;;;;;4991172;28;19925;-70
2022/01/29 08:58:08;;;;;;;;;;;10.20;40.70;;;;;;5005043;28;19910;-64
2022/01/29 09:00:35;;;;;;;;;;;10.20;39.90;;;;;;4990784;28;19910;-70
2022/01/29 09:03:00;;;;;;;;;;;9.90;38.50;;;;;;4991092;28;20012;-69
2022/01/29 09:05:26;;;;;;;;;;;9.70;38.50;;;;;;4991753;28;19941;-72
2022/01/29 09:07:51;;;;;;;;;;;9.70;40.60;;;;;;4989559;28;19925;-69
2022/01/29 09:10:17;;;;;;;;;;;9.70;42.50;;;;;;4992442;28;19921;-70
2022/01/29 09:12:43;;;;;;;;;;;9.70;43.20;;;;;;4987720;28;19910;-69
2022/01/29 09:15:08;;;;;;;;;;;9.80;42.10;;;;;;4992247;28;19917;-75
2022/01/29 09:17:35;;;;;;;;;;;9.90;42.80;;;;;;4992345;28;19910;-68
2022/01/29 09:20:02;;;;;;;;;;;10.10;43.30;;;;;;4991918;28;19962;-68
2022/01/29 09:22:27;;;;;;;;;;;10.00;40.30;;;;;;4992486;28;20000;-68
2022/01/29 09:24:53;;;;;;;;;;;10.20;40.20;;;;;;4993522;28;19949;-71
2022/01/29 09:27:18;;;;;;;;;;;10.30;38.30;;;;;;4991731;28;19925;-66
2022/01/29 09:29:44;;;;;;;;;;;10.40;37.70;;;;;;4993294;28;19917;-70
2022/01/29 09:32:10;;;;;;;;;;;10.30;38.40;;;;;;4993252;28;19914;-71
2022/01/29 09:34:36;;;;;;;;;;;10.30;39.00;;;;;;4993224;28;19910;-71
2022/01/29 09:37:01;;;;;;;;;;;10.40;38.40;;;;;;4992857;28;19932;-68
2022/01/29 09:39:27;;;;;;;;;;;10.50;38.10;;;;;;4992439;28;20000;-67
2022/01/29 09:41:53;;;;;;;;;;;10.60;38.30;;;;;;4992332;28;19909;-66
2022/01/29 09:44:19;;;;;;;;;;;10.70;37.90;;;;;;4992300;28;19939;-69
2022/01/29 09:46:46;;;;;;;;;;;10.80;37.60;;;;;;4992338;28;19914;-68
2022/01/29 09:49:12;;;;;;;;;;;10.80;36.20;;;;;;4992892;28;19981;-70
2022/01/29 09:51:38;;;;;;;;;;;10.80;37.10;;;;;;4991955;28;20004;-67
2022/01/29 09:54:04;;;;;;;;;;;10.90;37.30;;;;;;4990379;28;19956;-69
2022/01/29 09:56:31;;;;;;;;;;;10.90;37.70;;;;;;4993286;28;19914;-70
2022/01/29 09:58:57;;;;;;;;;;;11.00;37.70;;;;;;4993212;28;19910;-66
2022/01/29 10:01:23;;;;;;;;;;;10.80;36.80;;;;;;4992603;28;20388;-68
2022/01/29 10:03:59;;;;;;;;;;;10.90;37.60;;;;;;4992162;28;19913;-69
2022/01/29 10:06:24;;;;;;;;;;;10.60;37.90;;;;;;4990249;28;20030;-67
2022/01/29 10:08:50;;;;;;;;;;;10.70;39.00;;;;;;4991913;28;20004;-67
2022/01/29 10:11:20;;;;;;;;;;;10.70;37.00;;;;;;4992238;28;19921;-66
2022/01/29 10:13:46;;;;;;;;;;;10.70;37.20;;;;;;4992169;28;20005;-66
2022/01/29 10:16:19;;;;;;;;;;;10.70;37.10;;;;;;4991955;28;19942;-68
2022/01/29 10:18:48;;;;;;;;;;;10.80;37.30;;;;;;4992554;28;20420;-70
2022/01/29 10:21:20;;;;;;;;;;;10.80;38.00;;;;;;4993136;28;19921;-72
2022/01/29 10:23:46;;;;;;;;;;;10.90;38.60;;;;;;4995378;28;19910;-67
2022/01/29 10:26:28;;;;;;;;;;;10.90;37.80;;;;;;4995361;28;19914;-70
2022/01/29 10:28:54;;;;;;;;;;;10.70;38.10;;;;;;4995743;28;19980;-67
2022/01/29 10:31:19;;;;;;;;;;;10.60;39.20;;;;;;4994189;28;19916;-68
2022/01/29 10:33:45;;;;;;;;;;;10.70;39.80;;;;;;4997852;28;19985;-65
2022/01/29 10:36:17;;;;;;;;;;;10.60;41.00;;;;;;4990044;28;19910;-65
2022/01/29 10:38:53;;;;;;;;;;;10.70;41.10;;;;;;4997396;28;20291;-71
2022/01/29 10:41:25;;;;;;;;;;;10.90;40.80;;;;;;5002210;28;19924;-65
2022/01/29 10:44:00;;;;;;;;;;;11.00;38.30;;;;;;5000439;28;19926;-62
2022/01/29 10:46:27;;;;;;;;;;;11.20;37.30;;;;;;5011809;28;19910;-66
2022/01/29 10:48:52;;;;;;;;;;;11.40;43.90;;;;;;4993212;28;19918;-67
2022/01/29 10:51:18;;;;;;;;;;;11.70;36.40;;;;;;5002063;28;19916;-67
2022/01/29 10:53:43;;;;;;;;;;;11.70;33.90;;;;;;5002690;28;19910;-68
2022/01/29 10:56:09;;;;;;;;;;;11.60;34.70;;;;;;5004086;28;19953;-68
2022/01/29 10:58:45;;;;;;;;;;;11.80;34.80;;;;;;5003828;28;19910;-71
2022/01/29 11:01:16;;;;;;;;;;;11.90;33.30;;;;;;5002953;28;19909;-67
2022/01/29 11:03:42;;;;;;;;;;;11.70;33.40;;;;;;5002279;28;20320;-68
2022/01/29 11:06:09;;;;;;;;;;;11.80;33.70;;;;;;5001422;28;19910;-66
2022/01/29 11:08:35;;;;;;;;;;;11.90;34.20;;;;;;4997970;28;19924;-67
2022/01/29 11:11:01;;;;;;;;;;;12.10;34.40;;;;;;4997913;28;19914;-66
2022/01/29 11:13:27;;;;;;;;;;;12.10;34.70;;;;;;4998691;28;19914;-65
2022/01/29 11:15:54;;;;;;;;;;;12.20;34.40;;;;;;4999773;28;20274;-68
2022/01/29 11:18:19;;;;;;;;;;;12.20;34.70;;;;;;5000024;28;20322;-66
2022/01/29 11:20:45;;;;;;;;;;;12.20;34.50;;;;;;4999478;28;19910;-66
2022/01/29 11:23:11;;;;;;;;;;;12.10;34.50;;;;;;4997996;28;19956;-65
2022/01/29 11:25:37;;;;;;;;;;;12.20;34.60;;;;;;4996590;28;20326;-66
2022/01/29 11:28:13;;;;;;;;;;;12.20;34.50;;;;;;4996880;28;19952;-68
2022/01/29 11:30:40;;;;;;;;;;;12.00;34.40;;;;;;4996733;28;19964;-66
2022/01/29 11:33:06;;;;;;;;;;;11.90;35.60;;;;;;4997670;28;19933;-65
2022/01/29 11:35:32;;;;;;;;;;;11.90;36.40;;;;;;4997152;28;19910;-67
2022/01/29 11:38:03;;;;;;;;;;;12.00;35.90;;;;;;4995872;28;19910;-66
2022/01/29 11:40:39;;;;;;;;;;;12.00;36.20;;;;;;4995573;28;20013;-67
2022/01/29 11:43:06;;;;;;;;;;;12.10;36.00;;;;;;4993958;28;19918;-66
2022/01/29 11:45:38;;;;;;;;;;;12.10;36.40;;;;;;4988843;28;20391;-65
2022/01/29 11:48:05;;;;;;;;;;;12.10;36.30;;;;;;4976474;28;19918;-65
2022/01/29 11:50:32;;;;;;;;;;;12.10;36.40;;;;;;4975845;28;19910;-66
2022/01/29 11:53:01;;;;;;;;;;;12.30;36.30;;;;;;4975424;28;19910;-65
2022/01/29 11:55:34;;;;;;;;;;;12.30;36.20;;;;;;4974076;28;20005;-65
2022/01/29 11:58:12;;;;;;;;;;;12.30;36.60;;;;;;4975607;28;19910;-66
2022/01/29 12:00:37;;;;;;;;;;;12.30;36.90;;;;;;4975485;28;20056;-67
2022/01/29 12:03:03;;;;;;;;;;;12.30;36.60;;;;;;4975529;28;20381;-66
2022/01/29 12:05:31;;;;;;;;;;;12.30;37.00;;;;;;4990544;28;19917;-65
2022/01/29 12:08:08;;;;;;;;;;;12.10;36.80;;;;;;4975710;28;19926;-67
2022/01/29 12:10:35;;;;;;;;;;;12.10;36.30;;;;;;4975562;28;19937;-66
2022/01/29 12:13:11;;;;;;;;;;;12.00;37.30;;;;;;4975762;28;20297;-66
2022/01/29 12:15:37;;;;;;;;;;;12.10;37.90;;;;;;4975836;28;19911;-66
2022/01/29 12:18:08;;;;;;;;;;;12.30;37.00;;;;;;4975780;28;19910;-67
2022/01/29 12:20:34;;;;;;;;;;;12.10;37.30;;;;;;4974023;28;20009;-65
2022/01/29 12:23:00;;;;;;;;;;;12.20;36.80;;;;;;4975647;28;19942;-66
2022/01/29 12:25:27;;;;;;;;;;;12.10;37.60;;;;;;4975343;28;19918;-65
2022/01/29 12:27:57;;;;;;;;;;;12.30;37.20;;;;;;4974138;28;19957;-65
2022/01/29 12:30:25;;;;;;;;;;;12.40;37.20;;;;;;4974634;28;19917;-66
2022/01/29 12:33:16;;;;;;;;;;;12.40;36.50;;;;;;4980038;28;19938;-64
2022/01/29 12:35:49;;;;;;;;;;;12.50;36.60;;;;;;4979355;28;19914;-66
2022/01/29 12:38:17;;;;;;;;;;;12.30;36.40;;;;;;4977268;28;19910;-65
2022/01/29 12:41:00;;;;;;;;;;;12.40;36.80;;;;;;4974490;28;19956;-66
2022/01/29 12:43:26;;;;;;;;;;;12.20;36.30;;;;;;4989361;28;19925;-70
2022/01/29 12:45:52;;;;;;;;;;;12.20;37.40;;;;;;4977881;28;20314;-75
2022/01/29 12:48:18;;;;;;;;;;;12.30;37.60;;;;;;4978146;28;19924;-73
2022/01/29 12:50:44;;;;;;;;;;;12.40;36.90;;;;;;4975863;28;19910;-70
2022/01/29 12:53:19;;;;;;;;;;;12.30;37.00;;;;;;4977665;28;20333;-71
2022/01/29 12:55:58;;;;;;;;;;;12.40;39.20;;;;;;4985011;28;20434;-69
2022/01/29 12:58:31;;;;;;;;;;;12.30;36.50;;;;;;4976913;28;19936;-67
2022/01/29 13:01:04;;;;;;;;;;;12.30;37.40;;;;;;4976568;28;19910;-70
2022/01/29 13:03:30;;;;;;;;;;;12.30;37.20;;;;;;4979119;28;19916;-68
2022/01/29 13:06:02;;;;;;;;;;;12.30;36.80;;;;;;4994045;28;19910;-65
2022/01/29 13:08:27;;;;;;;;;;;12.30;37.00;;;;;;4994121;28;19995;-70
2022/01/29 13:10:53;;;;;;;;;;;12.30;37.50;;;;;;4994259;28;19910;-70
2022/01/29 13:13:25;;;;;;;;;;;12.40;37.60;;;;;;4994048;28;19953;-65
2022/01/29 13:15:50;;;;;;;;;;;12.40;37.40;;;;;;4993744;28;19918;-69
2022/01/29 13:18:16;;;;;;;;;;;12.50;37.60;;;;;;4993533;28;19909;-69
2022/01/29 13:20:42;;;;;;;;;;;12.50;37.30;;;;;;4993805;28;19914;-70
2022/01/29 13:23:07;;;;;;;;;;;12.40;36.90;;;;;;4993294;28;19910;-66
2022/01/29 13:25:36;;;;;;;;;;;12.30;37.50;;;;;;4993777;28;19956;-73
2022/01/29 13:28:06;;;;;;;;;;;12.00;38.80;;;;;;4993554;28;19965;-69
2022/01/29 13:30:31;;;;;;;;;;;11.90;38.30;;;;;;4986899;28;20036;-64
2022/01/29 13:33:09;;;;;;;;;;;11.80;38.40;;;;;;4979055;28;19950;-65
2022/01/29 13:35:40;;;;;;;;;;;11.60;38.90;;;;;;4976452;28;19910;-65
2022/01/29 13:38:08;;;;;;;;;;;11.60;39.70;;;;;;4976062;28;19918;-67
2022/01/29 13:40:40;;;;;;;;;;;11.70;39.50;;;;;;4973386;28;20270;-67
2022/01/29 13:43:08;;;;;;;;;;;11.70;39.70;;;;;;4973053;28;19926;-64
2022/01/29 13:45:47;;;;;;;;;;;11.80;40.00;;;;;;4973481;28;19922;-64
2022/01/29 13:48:13;;;;;;;;;;;11.80;39.90;;;;;;4975989;28;19928;-66
2022/01/29 13:50:41;;;;;;;;;;;11.60;39.60;;;;;;4973152;28;19984;-61
2022/01/29 13:53:27;;;;;;;;;;;11.20;40.30;;;;;;4975699;28;19964;-66
2022/01/29 13:56:01;;;;;;;;;;;11.10;41.80;;;;;;4974241;28;19966;-67
2022/01/29 13:58:42;;;;;;;;;;;11.40;41.80;;;;;;4977543;28;20000;-62
2022/01/29 14:01:07;;;;;;;;;;;11.50;41.20;;;;;;4992399;28;20271;-63
2022/01/29 14:03:40;;;;;;;;;;;11.70;40.70;;;;;;4977294;28;19961;-67
2022/01/29 14:06:33;;;;;;;;;;;11.70;40.30;;;;;;4979940;28;19910;-68
2022/01/29 14:09:22;;;;;;;;;;;11.80;40.10;;;;;;4977133;28;20027;-66
2022/01/29 14:12:04;;;;;;;;;;;11.70;41.20;;;;;;4975673;28;20068;-63
2022/01/29 14:14:52;;;;;;;;;;;11.80;40.50;;;;;;4979744;28;19917;-62
2022/01/29 14:17:18;;;;;;;;;;;11.80;40.80;;;;;;4977089;28;19910;-63
2022/01/29 14:19:45;;;;;;;;;;;11.70;41.10;;;;;;4977019;28;20282;-63
2022/01/29 14:22:11;;;;;;;;;;;11.70;41.40;;;;;;4979279;28;19929;-63
2022/01/29 14:24:37;;;;;;;;;;;11.70;41.50;;;;;;4975529;28;19910;-64
2022/01/29 14:27:03;;;;;;;;;;;11.60;41.80;;;;;;4976531;28;19921;-60
2022/01/29 14:29:29;;;;;;;;;;;11.40;41.40;;;;;;4976836;28;19910;-69
2022/01/29 14:31:55;;;;;;;;;;;11.50;42.20;;;;;;4977029;28;19917;-63
2022/01/29 14:34:21;;;;;;;;;;;11.50;42.20;;;;;;4976643;28;20421;-65
2022/01/29 14:36:46;;;;;;;;;;;11.60;42.50;;;;;;4979348;28;19910;-63
2022/01/29 14:39:15;;;;;;;;;;;11.50;41.70;;;;;;4976958;28;19916;-64